sensor_id;sensor_type;location;lat;lon;timestamp;P1;durP1;ratioP1;P2;durP2;ratioP2
19846;SDS011;10084;50.518;8.588;2023-12-20T00:00:14;0.00;;;0.00;;
19846;SDS011;10084;50.518;8.588;2023-12-20T00:02:40;0.20;;;0.20;;
19846;SDS011;10084;50.518;8.588;2023-12-20T00:05:10;0.00;;;0.00;;
19846;SDS011;10084;50.518;8.588;2023-12-20T00:07:35;0.00;;;0.00;;
19846;SDS011;10084;50.518;8.588;2023-12-20T00:10:01;0.07;;;0.00;;
19846;SDS011;10084;50.518;8.588;2023-12-20T00:12:27;0.00;;;0.00;;
19846;SDS011;10084;50.518;8.588;2023-12-20T00:14:52;0.10;;;0.00;;
19846;SDS011;10084;50.518;8.588;2023-12-20T00:17:18;0.03;;;0.00;;
19846;SDS011;10084;50.518;8.588;2023-12-20T00:19:43;0.00;;;0.00;;
19846;SDS011;10084;50.518;8.588;2023-12-20T00:22:09;0.00;;;0.00;;
19846;SDS011;10084;50.518;8.588;2023-12-20T00:24:35;0.00;;;0.00;;
19846;SDS011;10084;50.518;8.588;2023-12-20T00:27:01;0.10;;;0.10;;
19846;SDS011;10084;50.518;8.588;2023-12-20T00:29:27;0.00;;;0.00;;
19846;SDS011;10084;50.518;8.588;2023-12-20T00:31:53;0.00;;;0.00;;
19846;SDS011;10084;50.518;8.588;2023-12-20T00:34:18;0.00;;;0.00;;
19846;SDS011;10084;50.518;8.588;2023-12-20T00:36:44;0.00;;;0.00;;
19846;SDS011;10084;50.518;8.588;2023-12-20T00:39:10;0.20;;;0.10;;
19846;SDS011;10084;50.518;8.588;2023-12-20T00:41:36;0.10;;;0.10;;
19846;SDS011;10084;50.518;8.588;2023-12-20T00:44:01;0.00;;;0.00;;
19846;SDS011;10084;50.518;8.588;2023-12-20T00:46:28;0.20;;;0.20;;
19846;SDS011;10084;50.518;8.588;2023-12-20T00:48:53;0.10;;;0.10;;
19846;SDS011;10084;50.518;8.588;2023-12-20T00:51:19;0.00;;;0.00;;
19846;SDS011;10084;50.518;8.588;2023-12-20T00:53:45;0.10;;;0.00;;
19846;SDS011;10084;50.518;8.588;2023-12-20T00:56:14;0.00;;;0.00;;
19846;SDS011;10084;50.518;8.588;2023-12-20T00:58:40;0.10;;;0.10;;
19846;SDS011;10084;50.518;8.588;2023-12-20T01:01:05;0.07;;;0.00;;
19846;SDS011;10084;50.518;8.588;2023-12-20T01:03:31;0.10;;;0.10;;
19846;SDS011;10084;50.518;8.588;2023-12-20T01:05:57;0.00;;;0.00;;
19846;SDS011;10084;50.518;8.588;2023-12-20T01:08:22;0.00;;;0.00;;
19846;SDS011;10084;50.518;8.588;2023-12-20T01:10:48;0.27;;;0.27;;
19846;SDS011;10084;50.518;8.588;2023-12-20T01:13:13;0.00;;;0.00;;
19846;SDS011;10084;50.518;8.588;2023-12-20T01:15:39;0.00;;;0.00;;
19846;SDS011;10084;50.518;8.588;2023-12-20T01:18:05;0.10;;;0.10;;
19846;SDS011;10084;50.518;8.588;2023-12-20T01:20:30;0.00;;;0.00;;
19846;SDS011;10084;50.518;8.588;2023-12-20T01:22:56;0.20;;;0.20;;
19846;SDS011;10084;50.518;8.588;2023-12-20T01:25:22;0.43;;;0.43;;
19846;SDS011;10084;50.518;8.588;2023-12-20T01:27:48;5.30;;;0.10;;
19846;SDS011;10084;50.518;8.588;2023-12-20T01:30:14;0.30;;;0.30;;
19846;SDS011;10084;50.518;8.588;2023-12-20T01:32:40;0.00;;;0.00;;
19846;SDS011;10084;50.518;8.588;2023-12-20T01:35:05;0.20;;;0.00;;
19846;SDS011;10084;50.518;8.588;2023-12-20T01:37:31;0.10;;;0.10;;
19846;SDS011;10084;50.518;8.588;2023-12-20T01:39:57;0.00;;;0.00;;
19846;SDS011;10084;50.518;8.588;2023-12-20T01:42:23;0.20;;;0.10;;
19846;SDS011;10084;50.518;8.588;2023-12-20T01:44:49;0.00;;;0.00;;
19846;SDS011;10084;50.518;8.588;2023-12-20T01:47:15;0.10;;;0.10;;
19846;SDS011;10084;50.518;8.588;2023-12-20T01:49:41;0.03;;;0.03;;
19846;SDS011;10084;50.518;8.588;2023-12-20T01:52:07;0.10;;;0.10;;
19846;SDS011;10084;50.518;8.588;2023-12-20T01:54:34;0.10;;;0.10;;
19846;SDS011;10084;50.518;8.588;2023-12-20T01:57:00;0.20;;;0.20;;
19846;SDS011;10084;50.518;8.588;2023-12-20T01:59:27;0.10;;;0.10;;
19846;SDS011;10084;50.518;8.588;2023-12-20T02:01:54;0.00;;;0.00;;
19846;SDS011;10084;50.518;8.588;2023-12-20T02:04:20;0.00;;;0.00;;
19846;SDS011;10084;50.518;8.588;2023-12-20T02:06:46;0.20;;;0.20;;
19846;SDS011;10084;50.518;8.588;2023-12-20T02:09:12;0.40;;;0.13;;
19846;SDS011;10084;50.518;8.588;2023-12-20T02:11:38;0.03;;;0.03;;
19846;SDS011;10084;50.518;8.588;2023-12-20T02:14:04;0.00;;;0.00;;
19846;SDS011;10084;50.518;8.588;2023-12-20T02:16:30;0.17;;;0.17;;
19846;SDS011;10084;50.518;8.588;2023-12-20T02:18:55;0.00;;;0.00;;
19846;SDS011;10084;50.518;8.588;2023-12-20T02:21:34;0.00;;;0.00;;
19846;SDS011;10084;50.518;8.588;2023-12-20T02:24:00;0.00;;;0.00;;
19846;SDS011;10084;50.518;8.588;2023-12-20T02:26:26;0.10;;;0.10;;
19846;SDS011;10084;50.518;8.588;2023-12-20T02:28:52;0.00;;;0.00;;
19846;SDS011;10084;50.518;8.588;2023-12-20T02:31:20;0.00;;;0.00;;
19846;SDS011;10084;50.518;8.588;2023-12-20T02:33:47;0.10;;;0.10;;
19846;SDS011;10084;50.518;8.588;2023-12-20T02:36:13;0.80;;;0.20;;
19846;SDS011;10084;50.518;8.588;2023-12-20T02:38:38;0.00;;;0.00;;
19846;SDS011;10084;50.518;8.588;2023-12-20T02:41:04;0.10;;;0.10;;
19846;SDS011;10084;50.518;8.588;2023-12-20T02:43:30;0.00;;;0.00;;
19846;SDS011;10084;50.518;8.588;2023-12-20T02:45:55;0.00;;;0.00;;
19846;SDS011;10084;50.518;8.588;2023-12-20T02:48:21;0.00;;;0.00;;
19846;SDS011;10084;50.518;8.588;2023-12-20T02:50:47;0.07;;;0.07;;
19846;SDS011;10084;50.518;8.588;2023-12-20T02:53:14;0.10;;;0.10;;
19846;SDS011;10084;50.518;8.588;2023-12-20T02:55:40;0.00;;;0.00;;
19846;SDS011;10084;50.518;8.588;2023-12-20T02:58:05;0.10;;;0.10;;
19846;SDS011;10084;50.518;8.588;2023-12-20T03:00:31;0.10;;;0.10;;
19846;SDS011;10084;50.518;8.588;2023-12-20T03:02:57;0.03;;;0.00;;
19846;SDS011;10084;50.518;8.588;2023-12-20T03:05:24;0.10;;;0.10;;
19846;SDS011;10084;50.518;8.588;2023-12-20T03:07:50;0.20;;;0.20;;
19846;SDS011;10084;50.518;8.588;2023-12-20T03:10:18;0.00;;;0.00;;
19846;SDS011;10084;50.518;8.588;2023-12-20T03:12:44;0.20;;;0.00;;
19846;SDS011;10084;50.518;8.588;2023-12-20T03:15:10;0.00;;;0.00;;
19846;SDS011;10084;50.518;8.588;2023-12-20T03:17:35;0.23;;;0.23;;
19846;SDS011;10084;50.518;8.588;2023-12-20T03:20:01;0.00;;;0.00;;
19846;SDS011;10084;50.518;8.588;2023-12-20T03:22:27;0.00;;;0.00;;
19846;SDS011;10084;50.518;8.588;2023-12-20T03:24:53;0.30;;;0.30;;
19846;SDS011;10084;50.518;8.588;2023-12-20T03:27:19;0.00;;;0.00;;
19846;SDS011;10084;50.518;8.588;2023-12-20T03:29:44;0.00;;;0.00;;
19846;SDS011;10084;50.518;8.588;2023-12-20T03:32:10;0.10;;;0.10;;
19846;SDS011;10084;50.518;8.588;2023-12-20T03:34:36;0.00;;;0.00;;
19846;SDS011;10084;50.518;8.588;2023-12-20T03:37:01;0.10;;;0.00;;
19846;SDS011;10084;50.518;8.588;2023-12-20T03:39:27;0.10;;;0.10;;
19846;SDS011;10084;50.518;8.588;2023-12-20T03:41:53;0.00;;;0.00;;
19846;SDS011;10084;50.518;8.588;2023-12-20T03:44:18;0.20;;;0.20;;
19846;SDS011;10084;50.518;8.588;2023-12-20T03:46:45;0.50;;;0.50;;
19846;SDS011;10084;50.518;8.588;2023-12-20T03:49:11;0.10;;;0.10;;
19846;SDS011;10084;50.518;8.588;2023-12-20T03:51:37;0.17;;;0.17;;
19846;SDS011;10084;50.518;8.588;2023-12-20T03:54:02;0.10;;;0.10;;
19846;SDS011;10084;50.518;8.588;2023-12-20T03:56:28;0.30;;;0.30;;
19846;SDS011;10084;50.518;8.588;2023-12-20T03:58:54;0.20;;;0.17;;
19846;SDS011;10084;50.518;8.588;2023-12-20T04:01:19;0.17;;;0.10;;
19846;SDS011;10084;50.518;8.588;2023-12-20T04:03:45;0.40;;;0.20;;
19846;SDS011;10084;50.518;8.588;2023-12-20T04:06:16;0.83;;;0.30;;
19846;SDS011;10084;50.518;8.588;2023-12-20T04:08:42;0.20;;;0.17;;
19846;SDS011;10084;50.518;8.588;2023-12-20T04:11:08;0.20;;;0.20;;
19846;SDS011;10084;50.518;8.588;2023-12-20T04:13:33;0.30;;;0.20;;
19846;SDS011;10084;50.518;8.588;2023-12-20T04:15:59;0.00;;;0.00;;
19846;SDS011;10084;50.518;8.588;2023-12-20T04:18:25;0.13;;;0.13;;
19846;SDS011;10084;50.518;8.588;2023-12-20T04:20:50;1.33;;;0.37;;
19846;SDS011;10084;50.518;8.588;2023-12-20T04:23:16;0.87;;;0.87;;
19846;SDS011;10084;50.518;8.588;2023-12-20T04:25:42;0.70;;;0.50;;
19846;SDS011;10084;50.518;8.588;2023-12-20T04:28:08;10.23;;;1.50;;
19846;SDS011;10084;50.518;8.588;2023-12-20T04:30:33;2.43;;;2.00;;
19846;SDS011;10084;50.518;8.588;2023-12-20T04:33:00;2.37;;;1.40;;
19846;SDS011;10084;50.518;8.588;2023-12-20T04:35:25;1.83;;;1.60;;
19846;SDS011;10084;50.518;8.588;2023-12-20T04:37:51;0.43;;;0.43;;
19846;SDS011;10084;50.518;8.588;2023-12-20T04:40:17;0.30;;;0.30;;
19846;SDS011;10084;50.518;8.588;2023-12-20T04:42:42;0.53;;;0.53;;
19846;SDS011;10084;50.518;8.588;2023-12-20T04:45:08;2.90;;;0.87;;
19846;SDS011;10084;50.518;8.588;2023-12-20T04:47:34;0.20;;;0.17;;
19846;SDS011;10084;50.518;8.588;2023-12-20T04:50:00;0.50;;;0.43;;
19846;SDS011;10084;50.518;8.588;2023-12-20T04:52:25;0.30;;;0.30;;
19846;SDS011;10084;50.518;8.588;2023-12-20T04:54:51;0.40;;;0.20;;
19846;SDS011;10084;50.518;8.588;2023-12-20T04:57:17;1.00;;;0.83;;
19846;SDS011;10084;50.518;8.588;2023-12-20T04:59:43;0.30;;;0.30;;
19846;SDS011;10084;50.518;8.588;2023-12-20T05:02:08;0.33;;;0.30;;
19846;SDS011;10084;50.518;8.588;2023-12-20T05:04:34;0.60;;;0.60;;
19846;SDS011;10084;50.518;8.588;2023-12-20T05:07:00;3.07;;;0.70;;
19846;SDS011;10084;50.518;8.588;2023-12-20T05:09:25;0.50;;;0.50;;
19846;SDS011;10084;50.518;8.588;2023-12-20T05:11:51;0.53;;;0.53;;
19846;SDS011;10084;50.518;8.588;2023-12-20T05:14:17;0.40;;;0.30;;
19846;SDS011;10084;50.518;8.588;2023-12-20T05:16:43;0.67;;;0.67;;
19846;SDS011;10084;50.518;8.588;2023-12-20T05:19:08;0.40;;;0.40;;
19846;SDS011;10084;50.518;8.588;2023-12-20T05:21:34;0.57;;;0.30;;
19846;SDS011;10084;50.518;8.588;2023-12-20T05:24:01;0.60;;;0.47;;
19846;SDS011;10084;50.518;8.588;2023-12-20T05:26:26;0.67;;;0.50;;
19846;SDS011;10084;50.518;8.588;2023-12-20T05:28:52;1.13;;;1.03;;
19846;SDS011;10084;50.518;8.588;2023-12-20T05:31:17;0.57;;;0.57;;
19846;SDS011;10084;50.518;8.588;2023-12-20T05:33:43;0.50;;;0.50;;
19846;SDS011;10084;50.518;8.588;2023-12-20T05:36:09;0.17;;;0.17;;
19846;SDS011;10084;50.518;8.588;2023-12-20T05:38:36;0.30;;;0.30;;
19846;SDS011;10084;50.518;8.588;2023-12-20T05:41:02;0.50;;;0.30;;
19846;SDS011;10084;50.518;8.588;2023-12-20T05:43:28;0.63;;;0.27;;
19846;SDS011;10084;50.518;8.588;2023-12-20T05:45:54;0.67;;;0.67;;
19846;SDS011;10084;50.518;8.588;2023-12-20T05:48:20;5.93;;;0.30;;
19846;SDS011;10084;50.518;8.588;2023-12-20T05:50:46;0.97;;;0.63;;
19846;SDS011;10084;50.518;8.588;2023-12-20T05:53:11;0.27;;;0.27;;
19846;SDS011;10084;50.518;8.588;2023-12-20T05:55:37;0.67;;;0.67;;
19846;SDS011;10084;50.518;8.588;2023-12-20T05:58:03;0.30;;;0.30;;
19846;SDS011;10084;50.518;8.588;2023-12-20T06:00:30;0.20;;;0.20;;
19846;SDS011;10084;50.518;8.588;2023-12-20T06:02:56;0.30;;;0.30;;
19846;SDS011;10084;50.518;8.588;2023-12-20T06:05:22;0.00;;;0.00;;
19846;SDS011;10084;50.518;8.588;2023-12-20T06:07:47;0.07;;;0.07;;
19846;SDS011;10084;50.518;8.588;2023-12-20T06:10:16;0.40;;;0.40;;
19846;SDS011;10084;50.518;8.588;2023-12-20T06:12:41;0.10;;;0.10;;
19846;SDS011;10084;50.518;8.588;2023-12-20T06:15:07;0.60;;;0.30;;
19846;SDS011;10084;50.518;8.588;2023-12-20T06:17:33;0.37;;;0.37;;
19846;SDS011;10084;50.518;8.588;2023-12-20T06:20:00;2.60;;;0.40;;
19846;SDS011;10084;50.518;8.588;2023-12-20T06:22:26;0.10;;;0.10;;
19846;SDS011;10084;50.518;8.588;2023-12-20T06:24:52;0.40;;;0.10;;
19846;SDS011;10084;50.518;8.588;2023-12-20T06:27:17;0.60;;;0.40;;
19846;SDS011;10084;50.518;8.588;2023-12-20T06:29:43;0.27;;;0.27;;
19846;SDS011;10084;50.518;8.588;2023-12-20T06:32:10;0.33;;;0.33;;
19846;SDS011;10084;50.518;8.588;2023-12-20T06:34:35;0.30;;;0.30;;
19846;SDS011;10084;50.518;8.588;2023-12-20T06:37:01;0.30;;;0.30;;
19846;SDS011;10084;50.518;8.588;2023-12-20T06:39:27;0.13;;;0.13;;
19846;SDS011;10084;50.518;8.588;2023-12-20T06:41:53;0.00;;;0.00;;
19846;SDS011;10084;50.518;8.588;2023-12-20T06:44:18;0.80;;;0.33;;
19846;SDS011;10084;50.518;8.588;2023-12-20T06:46:44;0.20;;;0.20;;
19846;SDS011;10084;50.518;8.588;2023-12-20T06:49:10;3.97;;;0.50;;
19846;SDS011;10084;50.518;8.588;2023-12-20T06:51:35;0.67;;;0.00;;
19846;SDS011;10084;50.518;8.588;2023-12-20T06:54:01;0.67;;;0.50;;
19846;SDS011;10084;50.518;8.588;2023-12-20T06:56:27;11.27;;;2.50;;
19846;SDS011;10084;50.518;8.588;2023-12-20T06:58:53;3.60;;;0.60;;
19846;SDS011;10084;50.518;8.588;2023-12-20T07:01:19;0.90;;;0.90;;
19846;SDS011;10084;50.518;8.588;2023-12-20T07:03:45;0.40;;;0.40;;
19846;SDS011;10084;50.518;8.588;2023-12-20T07:06:10;0.40;;;0.40;;
19846;SDS011;10084;50.518;8.588;2023-12-20T07:08:36;0.20;;;0.20;;
19846;SDS011;10084;50.518;8.588;2023-12-20T07:11:02;0.63;;;0.63;;
19846;SDS011;10084;50.518;8.588;2023-12-20T07:13:28;2.10;;;0.93;;
19846;SDS011;10084;50.518;8.588;2023-12-20T07:15:53;3.53;;;1.03;;
19846;SDS011;10084;50.518;8.588;2023-12-20T07:18:19;0.30;;;0.30;;
19846;SDS011;10084;50.518;8.588;2023-12-20T07:20:45;0.63;;;0.63;;
19846;SDS011;10084;50.518;8.588;2023-12-20T07:23:11;1.03;;;0.40;;
19846;SDS011;10084;50.518;8.588;2023-12-20T07:25:36;0.27;;;0.27;;
19846;SDS011;10084;50.518;8.588;2023-12-20T07:28:02;0.13;;;0.13;;
19846;SDS011;10084;50.518;8.588;2023-12-20T07:30:28;0.77;;;0.50;;
19846;SDS011;10084;50.518;8.588;2023-12-20T07:32:53;0.57;;;0.57;;
19846;SDS011;10084;50.518;8.588;2023-12-20T07:35:19;0.80;;;0.50;;
19846;SDS011;10084;50.518;8.588;2023-12-20T07:37:45;0.50;;;0.50;;
19846;SDS011;10084;50.518;8.588;2023-12-20T07:40:11;1.30;;;1.20;;
19846;SDS011;10084;50.518;8.588;2023-12-20T07:42:36;0.63;;;0.63;;
19846;SDS011;10084;50.518;8.588;2023-12-20T07:45:03;0.80;;;0.80;;
19846;SDS011;10084;50.518;8.588;2023-12-20T07:47:29;0.37;;;0.27;;
19846;SDS011;10084;50.518;8.588;2023-12-20T07:49:55;0.53;;;0.40;;
19846;SDS011;10084;50.518;8.588;2023-12-20T07:52:20;0.50;;;0.50;;
19846;SDS011;10084;50.518;8.588;2023-12-20T07:54:47;0.10;;;0.10;;
19846;SDS011;10084;50.518;8.588;2023-12-20T07:57:13;7.70;;;0.63;;
19846;SDS011;10084;50.518;8.588;2023-12-20T07:59:39;6.33;;;0.10;;
19846;SDS011;10084;50.518;8.588;2023-12-20T08:02:05;0.13;;;0.13;;
19846;SDS011;10084;50.518;8.588;2023-12-20T08:04:31;0.60;;;0.37;;
19846;SDS011;10084;50.518;8.588;2023-12-20T08:06:57;0.07;;;0.07;;
19846;SDS011;10084;50.518;8.588;2023-12-20T08:09:23;0.47;;;0.37;;
19846;SDS011;10084;50.518;8.588;2023-12-20T08:11:49;0.10;;;0.10;;
19846;SDS011;10084;50.518;8.588;2023-12-20T08:14:15;6.70;;;0.33;;
19846;SDS011;10084;50.518;8.588;2023-12-20T08:16:41;0.47;;;0.47;;
19846;SDS011;10084;50.518;8.588;2023-12-20T08:19:06;0.00;;;0.00;;
19846;SDS011;10084;50.518;8.588;2023-12-20T08:21:33;0.10;;;0.10;;
19846;SDS011;10084;50.518;8.588;2023-12-20T08:23:59;0.30;;;0.20;;
19846;SDS011;10084;50.518;8.588;2023-12-20T08:26:25;1.70;;;0.60;;
19846;SDS011;10084;50.518;8.588;2023-12-20T08:28:51;0.20;;;0.10;;
19846;SDS011;10084;50.518;8.588;2023-12-20T08:31:17;0.10;;;0.10;;
19846;SDS011;10084;50.518;8.588;2023-12-20T08:33:44;0.30;;;0.30;;
19846;SDS011;10084;50.518;8.588;2023-12-20T08:36:10;0.10;;;0.10;;
19846;SDS011;10084;50.518;8.588;2023-12-20T08:38:36;0.00;;;0.00;;
19846;SDS011;10084;50.518;8.588;2023-12-20T08:41:02;0.97;;;0.20;;
19846;SDS011;10084;50.518;8.588;2023-12-20T08:43:30;4.53;;;0.93;;
19846;SDS011;10084;50.518;8.588;2023-12-20T08:45:56;0.10;;;0.10;;
19846;SDS011;10084;50.518;8.588;2023-12-20T08:48:22;0.13;;;0.13;;
19846;SDS011;10084;50.518;8.588;2023-12-20T08:50:48;0.30;;;0.30;;
19846;SDS011;10084;50.518;8.588;2023-12-20T08:53:15;0.70;;;0.60;;
19846;SDS011;10084;50.518;8.588;2023-12-20T08:55:42;0.00;;;0.00;;
19846;SDS011;10084;50.518;8.588;2023-12-20T08:58:07;0.50;;;0.20;;
19846;SDS011;10084;50.518;8.588;2023-12-20T09:00:34;0.10;;;0.10;;
19846;SDS011;10084;50.518;8.588;2023-12-20T09:03:01;0.30;;;0.30;;
19846;SDS011;10084;50.518;8.588;2023-12-20T09:05:27;0.63;;;0.50;;
19846;SDS011;10084;50.518;8.588;2023-12-20T09:07:53;0.27;;;0.27;;
19846;SDS011;10084;50.518;8.588;2023-12-20T09:10:19;1.73;;;0.03;;
19846;SDS011;10084;50.518;8.588;2023-12-20T09:12:50;0.00;;;0.00;;
19846;SDS011;10084;50.518;8.588;2023-12-20T09:15:19;0.27;;;0.13;;
19846;SDS011;10084;50.518;8.588;2023-12-20T09:17:45;0.00;;;0.00;;
19846;SDS011;10084;50.518;8.588;2023-12-20T09:20:10;0.50;;;0.50;;
19846;SDS011;10084;50.518;8.588;2023-12-20T09:22:38;0.17;;;0.17;;
19846;SDS011;10084;50.518;8.588;2023-12-20T09:25:05;3.40;;;0.30;;
19846;SDS011;10084;50.518;8.588;2023-12-20T09:27:31;8.50;;;0.43;;
19846;SDS011;10084;50.518;8.588;2023-12-20T09:29:57;0.30;;;0.30;;
19846;SDS011;10084;50.518;8.588;2023-12-20T09:32:22;2.10;;;0.10;;
19846;SDS011;10084;50.518;8.588;2023-12-20T09:34:48;0.40;;;0.37;;
19846;SDS011;10084;50.518;8.588;2023-12-20T09:37:14;6.33;;;0.43;;
19846;SDS011;10084;50.518;8.588;2023-12-20T09:39:39;1.23;;;0.20;;
19846;SDS011;10084;50.518;8.588;2023-12-20T09:42:06;2.97;;;0.20;;
19846;SDS011;10084;50.518;8.588;2023-12-20T09:44:32;0.20;;;0.20;;
19846;SDS011;10084;50.518;8.588;2023-12-20T09:47:00;2.53;;;0.20;;
19846;SDS011;10084;50.518;8.588;2023-12-20T09:49:28;3.20;;;0.10;;
19846;SDS011;10084;50.518;8.588;2023-12-20T09:51:55;0.30;;;0.10;;
19846;SDS011;10084;50.518;8.588;2023-12-20T09:54:22;0.17;;;0.17;;
19846;SDS011;10084;50.518;8.588;2023-12-20T09:56:48;0.00;;;0.00;;
19846;SDS011;10084;50.518;8.588;2023-12-20T09:59:14;0.00;;;0.00;;
19846;SDS011;10084;50.518;8.588;2023-12-20T10:01:40;0.00;;;0.00;;
19846;SDS011;10084;50.518;8.588;2023-12-20T10:04:07;0.57;;;0.30;;
19846;SDS011;10084;50.518;8.588;2023-12-20T10:06:46;0.40;;;0.10;;
19846;SDS011;10084;50.518;8.588;2023-12-20T10:09:13;0.40;;;0.10;;
19846;SDS011;10084;50.518;8.588;2023-12-20T10:11:39;0.50;;;0.30;;
19846;SDS011;10084;50.518;8.588;2023-12-20T10:14:05;0.20;;;0.20;;
19846;SDS011;10084;50.518;8.588;2023-12-20T10:16:33;0.40;;;0.23;;
19846;SDS011;10084;50.518;8.588;2023-12-20T10:19:00;0.47;;;0.13;;
19846;SDS011;10084;50.518;8.588;2023-12-20T10:21:29;0.30;;;0.30;;
19846;SDS011;10084;50.518;8.588;2023-12-20T10:23:55;0.10;;;0.10;;
19846;SDS011;10084;50.518;8.588;2023-12-20T10:26:22;0.20;;;0.03;;
19846;SDS011;10084;50.518;8.588;2023-12-20T10:28:56;11.40;;;0.30;;
19846;SDS011;10084;50.518;8.588;2023-12-20T10:31:28;0.17;;;0.17;;
19846;SDS011;10084;50.518;8.588;2023-12-20T10:33:58;1.20;;;0.20;;
19846;SDS011;10084;50.518;8.588;2023-12-20T10:36:25;2.93;;;0.20;;
19846;SDS011;10084;50.518;8.588;2023-12-20T10:38:53;1.73;;;0.30;;
19846;SDS011;10084;50.518;8.588;2023-12-20T10:41:22;14.77;;;0.93;;
19846;SDS011;10084;50.518;8.588;2023-12-20T10:43:51;0.10;;;0.10;;
19846;SDS011;10084;50.518;8.588;2023-12-20T10:46:18;0.37;;;0.37;;
19846;SDS011;10084;50.518;8.588;2023-12-20T10:48:45;0.70;;;0.70;;
19846;SDS011;10084;50.518;8.588;2023-12-20T10:51:11;1.50;;;0.37;;
19846;SDS011;10084;50.518;8.588;2023-12-20T10:53:42;3.13;;;0.23;;
19846;SDS011;10084;50.518;8.588;2023-12-20T10:56:09;0.47;;;0.20;;
19846;SDS011;10084;50.518;8.588;2023-12-20T10:58:41;2.20;;;0.33;;
19846;SDS011;10084;50.518;8.588;2023-12-20T11:01:08;0.60;;;0.40;;
19846;SDS011;10084;50.518;8.588;2023-12-20T11:03:35;0.30;;;0.30;;
19846;SDS011;10084;50.518;8.588;2023-12-20T11:06:05;0.10;;;0.10;;
19846;SDS011;10084;50.518;8.588;2023-12-20T11:08:36;0.20;;;0.20;;
19846;SDS011;10084;50.518;8.588;2023-12-20T11:11:31;0.20;;;0.20;;
19846;SDS011;10084;50.518;8.588;2023-12-20T11:14:42;5.43;;;0.73;;
19846;SDS011;10084;50.518;8.588;2023-12-20T11:17:08;0.60;;;0.50;;
19846;SDS011;10084;50.518;8.588;2023-12-20T11:20:03;6.00;;;1.00;;
19846;SDS011;10084;50.518;8.588;2023-12-20T11:22:31;6.83;;;1.17;;
19846;SDS011;10084;50.518;8.588;2023-12-20T11:25:07;10.63;;;2.53;;
19846;SDS011;10084;50.518;8.588;2023-12-20T11:27:34;23.57;;;3.30;;
19846;SDS011;10084;50.518;8.588;2023-12-20T11:30:02;2.63;;;0.93;;
19846;SDS011;10084;50.518;8.588;2023-12-20T11:32:31;2.97;;;2.73;;
19846;SDS011;10084;50.518;8.588;2023-12-20T11:35:00;2.87;;;2.20;;
19846;SDS011;10084;50.518;8.588;2023-12-20T11:37:39;1.37;;;1.27;;
19846;SDS011;10084;50.518;8.588;2023-12-20T11:40:08;3.07;;;1.13;;
19846;SDS011;10084;50.518;8.588;2023-12-20T11:42:43;1.10;;;0.67;;
19846;SDS011;10084;50.518;8.588;2023-12-20T11:45:12;0.60;;;0.53;;
19846;SDS011;10084;50.518;8.588;2023-12-20T11:47:47;4.20;;;0.87;;
19846;SDS011;10084;50.518;8.588;2023-12-20T11:50:17;0.87;;;0.87;;
19846;SDS011;10084;50.518;8.588;2023-12-20T11:52:43;6.27;;;1.30;;
19846;SDS011;10084;50.518;8.588;2023-12-20T11:55:09;2.57;;;0.60;;
19846;SDS011;10084;50.518;8.588;2023-12-20T11:57:35;1.27;;;0.20;;
19846;SDS011;10084;50.518;8.588;2023-12-20T12:00:02;0.80;;;0.50;;
19846;SDS011;10084;50.518;8.588;2023-12-20T12:02:37;2.70;;;0.30;;
19846;SDS011;10084;50.518;8.588;2023-12-20T12:05:03;2.53;;;0.40;;
19846;SDS011;10084;50.518;8.588;2023-12-20T12:07:32;0.20;;;0.20;;
19846;SDS011;10084;50.518;8.588;2023-12-20T12:09:58;0.20;;;0.20;;
19846;SDS011;10084;50.518;8.588;2023-12-20T12:12:24;0.20;;;0.20;;
19846;SDS011;10084;50.518;8.588;2023-12-20T12:14:52;0.10;;;0.10;;
19846;SDS011;10084;50.518;8.588;2023-12-20T12:17:18;1.20;;;0.27;;
19846;SDS011;10084;50.518;8.588;2023-12-20T12:19:44;0.30;;;0.20;;
19846;SDS011;10084;50.518;8.588;2023-12-20T12:22:13;0.13;;;0.13;;
19846;SDS011;10084;50.518;8.588;2023-12-20T12:24:42;0.20;;;0.20;;
19846;SDS011;10084;50.518;8.588;2023-12-20T12:27:08;3.57;;;0.17;;
19846;SDS011;10084;50.518;8.588;2023-12-20T12:29:35;0.17;;;0.17;;
19846;SDS011;10084;50.518;8.588;2023-12-20T12:32:05;2.73;;;0.40;;
19846;SDS011;10084;50.518;8.588;2023-12-20T12:34:32;3.40;;;0.37;;
19846;SDS011;10084;50.518;8.588;2023-12-20T12:37:02;0.30;;;0.30;;
19846;SDS011;10084;50.518;8.588;2023-12-20T12:39:30;2.10;;;0.10;;
19846;SDS011;10084;50.518;8.588;2023-12-20T12:41:56;0.23;;;0.23;;
19846;SDS011;10084;50.518;8.588;2023-12-20T12:44:22;0.77;;;0.50;;
19846;SDS011;10084;50.518;8.588;2023-12-20T12:46:51;1.50;;;0.63;;
19846;SDS011;10084;50.518;8.588;2023-12-20T12:49:19;2.20;;;0.73;;
19846;SDS011;10084;50.518;8.588;2023-12-20T12:51:46;0.10;;;0.10;;
19846;SDS011;10084;50.518;8.588;2023-12-20T12:54:12;0.20;;;0.20;;
19846;SDS011;10084;50.518;8.588;2023-12-20T12:56:38;0.20;;;0.20;;
19846;SDS011;10084;50.518;8.588;2023-12-20T12:59:04;2.17;;;0.30;;
19846;SDS011;10084;50.518;8.588;2023-12-20T13:01:31;4.60;;;0.30;;
19846;SDS011;10084;50.518;8.588;2023-12-20T13:03:56;1.13;;;0.40;;
19846;SDS011;10084;50.518;8.588;2023-12-20T13:06:22;1.00;;;0.30;;
19846;SDS011;10084;50.518;8.588;2023-12-20T13:08:48;0.30;;;0.30;;
19846;SDS011;10084;50.518;8.588;2023-12-20T13:11:14;0.20;;;0.20;;
19846;SDS011;10084;50.518;8.588;2023-12-20T13:13:40;0.77;;;0.40;;
19846;SDS011;10084;50.518;8.588;2023-12-20T13:16:06;0.10;;;0.10;;
19846;SDS011;10084;50.518;8.588;2023-12-20T13:18:31;2.53;;;0.70;;
19846;SDS011;10084;50.518;8.588;2023-12-20T13:20:57;0.40;;;0.23;;
19846;SDS011;10084;50.518;8.588;2023-12-20T13:23:23;0.30;;;0.17;;
19846;SDS011;10084;50.518;8.588;2023-12-20T13:25:49;0.20;;;0.13;;
19846;SDS011;10084;50.518;8.588;2023-12-20T13:28:14;0.10;;;0.10;;
19846;SDS011;10084;50.518;8.588;2023-12-20T13:30:40;0.47;;;0.47;;
19846;SDS011;10084;50.518;8.588;2023-12-20T13:33:06;0.10;;;0.10;;
19846;SDS011;10084;50.518;8.588;2023-12-20T13:35:32;0.20;;;0.20;;
19846;SDS011;10084;50.518;8.588;2023-12-20T13:37:59;0.63;;;0.50;;
19846;SDS011;10084;50.518;8.588;2023-12-20T13:40:25;0.47;;;0.20;;
19846;SDS011;10084;50.518;8.588;2023-12-20T13:42:52;1.03;;;0.30;;
19846;SDS011;10084;50.518;8.588;2023-12-20T13:45:17;2.40;;;0.57;;
19846;SDS011;10084;50.518;8.588;2023-12-20T13:47:43;0.27;;;0.27;;
19846;SDS011;10084;50.518;8.588;2023-12-20T13:50:09;11.73;;;0.37;;
19846;SDS011;10084;50.518;8.588;2023-12-20T13:52:35;0.40;;;0.40;;
19846;SDS011;10084;50.518;8.588;2023-12-20T13:55:01;0.57;;;0.10;;
19846;SDS011;10084;50.518;8.588;2023-12-20T13:57:27;0.37;;;0.10;;
19846;SDS011;10084;50.518;8.588;2023-12-20T13:59:55;1.23;;;0.67;;
19846;SDS011;10084;50.518;8.588;2023-12-20T14:02:22;0.17;;;0.17;;
19846;SDS011;10084;50.518;8.588;2023-12-20T14:04:48;0.10;;;0.10;;
19846;SDS011;10084;50.518;8.588;2023-12-20T14:07:15;0.20;;;0.20;;
19846;SDS011;10084;50.518;8.588;2023-12-20T14:09:41;2.10;;;0.20;;
19846;SDS011;10084;50.518;8.588;2023-12-20T14:12:13;0.13;;;0.13;;
19846;SDS011;10084;50.518;8.588;2023-12-20T14:14:39;0.50;;;0.33;;
19846;SDS011;10084;50.518;8.588;2023-12-20T14:17:05;1.20;;;0.60;;
19846;SDS011;10084;50.518;8.588;2023-12-20T14:19:31;5.13;;;0.40;;
19846;SDS011;10084;50.518;8.588;2023-12-20T14:21:57;0.73;;;0.40;;
19846;SDS011;10084;50.518;8.588;2023-12-20T14:24:26;3.30;;;0.50;;
19846;SDS011;10084;50.518;8.588;2023-12-20T14:26:52;0.40;;;0.40;;
19846;SDS011;10084;50.518;8.588;2023-12-20T14:29:18;3.40;;;0.43;;
19846;SDS011;10084;50.518;8.588;2023-12-20T14:31:44;8.27;;;0.63;;
19846;SDS011;10084;50.518;8.588;2023-12-20T14:34:10;0.13;;;0.13;;
19846;SDS011;10084;50.518;8.588;2023-12-20T14:36:36;0.47;;;0.47;;
19846;SDS011;10084;50.518;8.588;2023-12-20T14:39:02;3.60;;;0.40;;
19846;SDS011;10084;50.518;8.588;2023-12-20T14:41:33;0.83;;;0.83;;
19846;SDS011;10084;50.518;8.588;2023-12-20T14:43:58;0.00;;;0.00;;